Salem, Michigan
Current Conditions -  °F | °C
As of 6:53 PM on Wednesday 28 Jan 2015 (Local Time) from KYIP Reporting Station
Overcast Overcast  
Wind Chill: 17°   Ceiling: 12000
Heat Index: 27°   Visibility: 10mi
Dew Point: 15°   Wind: 10mph
Humidity: 61%   Direction: 150°SSE
Pressure: 30.25"   Gusts: NA
Location:  42.41°N, 83.58°W
Report Text: KYIP 282353Z AUTO 15009KT 10SM OVC120 M03/M09 A3025 RMK AO2 SLP253 T10281094 10006 21028 56006 TSNO
Loading
Personal Weather Stations






























Interactive Weather Map New forecast layout! Learn more

10-Day Weather Forecast

Advertisements
Track Severe Weather on mobile